Time;durP1;ratioP1;P1;durP2;ratioP2;P2;SDS_P1;SDS_P2;PMS_P1;PMS_P2;Temp;Humidity;BMP_temperature;BMP_pressure;BME280_temperature;BME280_humidity;BME280_pressure;Samples;Min_cycle;Max_cycle;Signal;HPM_P1;HPM_P2
2023/03/07 00:01:51;;;;;;;10.40;7.43;;;;;;;;;;5030174;28;20025;-73
2023/03/07 00:04:55;;;;;;;14.63;8.32;;;11.50;99.90;;;;;;5029814;28;20056;-73
2023/03/07 00:08:00;;;;;;;11.85;8.63;;;;;;;;;;5029600;28;20057;-73
2023/03/07 00:11:06;;;;;;;17.20;9.93;;;11.40;99.90;;;;;;5031607;28;20030;-73
2023/03/07 00:14:10;;;;;;;14.27;10.35;;;11.20;99.90;;;;;;5033864;28;20052;-73
2023/03/07 00:17:14;;;;;;;19.27;11.52;;;11.40;99.90;;;;;;5033715;28;20041;-73
2023/03/07 00:20:19;;;;;;;21.58;11.40;;;;;;;;;;5032966;28;20048;-74
2023/03/07 00:23:22;;;;;;;17.45;11.77;;;11.10;99.90;;;;;;5033552;28;20057;-73
2023/03/07 00:26:27;;;;;;;18.00;11.45;;;11.20;99.90;;;;;;5033484;28;20064;-73
2023/03/07 00:29:30;;;;;;;19.52;14.45;;;11.40;99.90;;;;;;5033646;28;20040;-74
2023/03/07 00:32:35;;;;;;;21.67;14.63;;;11.50;99.90;;;;;;5033658;28;20064;-73
2023/03/07 00:35:38;;;;;;;18.23;11.80;;;11.50;99.90;;;;;;5033434;28;20389;-74
2023/03/07 00:38:43;;;;;;;19.42;12.85;;;11.20;99.90;;;;;;5021212;28;20408;-73
2023/03/07 00:41:47;;;;;;;24.55;16.70;;;11.20;99.90;;;;;;5033364;28;20049;-73
2023/03/07 00:44:51;;;;;;;29.42;20.90;;;11.30;99.90;;;;;;5033486;28;20049;-73
2023/03/07 00:47:56;;;;;;;33.05;21.85;;;11.20;99.90;;;;;;5033525;28;20400;-73
2023/03/07 00:51:01;;;;;;;33.80;21.48;;;11.20;99.90;;;;;;5033073;28;20388;-73
2023/03/07 00:54:05;;;;;;;32.50;21.90;;;10.20;99.90;;;;;;5032456;28;20048;-72
2023/03/07 00:57:09;;;;;;;27.98;21.15;;;11.10;99.90;;;;;;5055301;28;20056;-73
2023/03/07 01:00:14;;;;;;;36.55;22.40;;;;;;;;;;5032271;28;20067;-72
2023/03/07 01:03:18;;;;;;;32.42;22.73;;;11.20;99.90;;;;;;5032190;28;20048;-73
2023/03/07 01:06:26;;;;;;;34.33;22.50;;;11.20;99.90;;;;;;5031838;28;20060;-73
2023/03/07 01:09:31;;;;;;;26.40;19.70;;;11.10;99.90;;;;;;5031931;28;20037;-73
2023/03/07 01:12:38;;;;;;;25.58;18.17;;;11.30;99.90;;;;;;5043120;28;20048;-73
2023/03/07 01:15:42;;;;;;;21.63;15.45;;;11.20;99.90;;;;;;5054817;28;20037;-73
2023/03/07 01:18:52;;;;;;;23.70;14.90;;;11.30;99.90;;;;;;5032662;28;20056;-73
2023/03/07 01:21:55;;;;;;;23.00;16.00;;;11.00;99.90;;;;;;5031410;28;20045;-73
2023/03/07 01:25:00;;;;;;;23.77;16.17;;;11.20;99.90;;;;;;5031490;28;20088;-73
2023/03/07 01:28:04;;;;;;;24.75;16.83;;;11.30;99.90;;;;;;5020363;28;20064;-73
2023/03/07 01:31:09;;;;;;;26.67;17.95;;;11.40;99.90;;;;;;5032576;28;20040;-73
2023/03/07 01:34:13;;;;;;;25.05;18.48;;;;;;;;;;5032182;28;20468;-72
2023/03/07 01:37:18;;;;;;;23.17;18.05;;;11.30;99.90;;;;;;5031130;28;20048;-72
2023/03/07 01:40:23;;;;;;;24.80;18.52;;;9.90;99.90;;;;;;5031551;28;20489;-73
2023/03/07 01:43:32;;;;;;;25.52;19.00;;;11.20;99.90;;;;;;5031437;28;20048;-73
2023/03/07 01:46:54;;;;;;;28.85;19.52;;;;;;;;;;5042716;28;20504;-72
2023/03/07 01:50:05;;;;;;;29.17;18.80;;;11.20;99.90;;;;;;5031333;28;20385;-73
2023/03/07 01:53:11;;;;;;;32.25;19.83;;;11.00;99.90;;;;;;5030894;28;20064;-74
2023/03/07 01:56:16;;;;;;;26.10;18.98;;;;;;;;;;5042686;28;20049;-73
2023/03/07 01:59:44;;;;;;;29.13;19.77;;;10.90;99.90;;;;;;5031875;28;20504;-73
2023/03/07 02:02:56;;;;;;;27.50;19.08;;;12.00;99.90;;;;;;5031946;28;20048;-73
2023/03/07 02:06:04;;;;;;;27.75;19.23;;;11.80;99.90;;;;;;5031830;28;20060;-73
2023/03/07 02:09:15;;;;;;;25.95;19.55;;;10.60;99.90;;;;;;5030728;28;20044;-74
2023/03/07 02:12:20;;;;;;;27.08;18.60;;;;;;;;;;5030720;28;20508;-73
2023/03/07 02:15:24;;;;;;;23.05;17.23;;;;;;;;;;5030926;28;20044;-74
2023/03/07 02:18:31;;;;;;;23.95;18.13;;;;;;;;;;5019256;28;20044;-74
2023/03/07 02:21:44;;;;;;;24.45;17.58;;;10.80;99.90;;;;;;5030543;28;20049;-73
2023/03/07 02:25:18;;;;;;;23.30;17.48;;;10.60;99.90;;;;;;5030319;28;20044;-74
2023/03/07 02:28:23;;;;;;;23.73;16.02;;;10.80;99.90;;;;;;5030793;28;20056;-74
2023/03/07 02:31:28;;;;;;;22.55;16.85;;;;;;;;;;5030336;28;20422;-73
2023/03/07 02:34:32;;;;;;;22.55;15.77;;;10.90;99.90;;;;;;5030924;28;20044;-74
2023/03/07 02:37:49;;;;;;;20.80;15.02;;;;;;;;;;5042168;28;20060;-74
2023/03/07 02:40:56;;;;;;;22.90;15.80;;;;;;;;;;5030132;28;20492;-74
2023/03/07 02:44:00;;;;;;;21.17;15.25;;;11.10;99.90;;;;;;5031047;28;20044;-74
2023/03/07 02:47:07;;;;;;;25.00;16.40;;;10.80;99.90;;;;;;5030113;28;20515;-73
2023/03/07 02:50:13;;;;;;;21.88;15.02;;;11.30;99.90;;;;;;5030291;28;20112;-73
2023/03/07 02:53:20;;;;;;;24.27;15.95;;;11.20;99.90;;;;;;5018447;28;20041;-73
2023/03/07 02:56:23;;;;;;;20.52;14.18;;;12.40;99.90;;;;;;5029921;28;20041;-72
2023/03/07 02:59:27;;;;;;;23.58;15.98;;;10.70;99.90;;;;;;5030798;28;20053;-73
2023/03/07 03:02:32;;;;;;;25.80;16.13;;;10.70;99.90;;;;;;5018507;28;20056;-73
2023/03/07 03:05:37;;;;;;;35.72;20.67;;;10.60;99.90;;;;;;5030801;28;20512;-74
2023/03/07 03:08:41;;;;;;;28.95;18.75;;;10.80;99.90;;;;;;5029918;28;20052;-73
2023/03/07 03:11:45;;;;;;;27.67;16.42;;;10.60;99.90;;;;;;5030645;28;20809;-73
2023/03/07 03:14:49;;;;;;;27.02;15.20;;;10.90;99.90;;;;;;5029510;28;20052;-73
2023/03/07 03:17:53;;;;;;;21.38;14.45;;;10.30;99.90;;;;;;5029803;28;20056;-73
2023/03/07 03:20:58;;;;;;;19.88;13.95;;;8.90;99.90;;;;;;5029978;28;20048;-73
2023/03/07 03:24:08;;;;;;;22.00;13.55;;;10.70;99.90;;;;;;5029444;28;20397;-74
2023/03/07 03:27:13;;;;;;;21.08;14.27;;;10.90;99.90;;;;;;5029590;28;20068;-73
2023/03/07 03:30:19;;;;;;;26.70;14.00;;;;;;;;;;5029655;28;20056;-73
2023/03/07 03:33:24;;;;;;;21.80;14.00;;;;;;;;;;5029523;28;20049;-73
2023/03/07 03:36:28;;;;;;;24.65;14.50;;;10.80;99.90;;;;;;5029514;28;20500;-73
2023/03/07 03:39:38;;;;;;;22.00;15.15;;;11.20;99.90;;;;;;5040887;28;20056;-73
2023/03/07 03:42:43;;;;;;;24.00;14.52;;;10.70;99.90;;;;;;5030164;28;20492;-73
2023/03/07 03:45:55;;;;;;;20.27;14.35;;;10.60;99.90;;;;;;5030670;28;20052;-74
2023/03/07 03:49:00;;;;;;;23.45;13.55;;;10.60;99.90;;;;;;5033638;28;20060;-73
2023/03/07 03:52:05;;;;;;;21.58;13.60;;;10.50;99.90;;;;;;5033478;28;20060;-72
2023/03/07 03:55:10;;;;;;;21.90;14.50;;;10.60;99.90;;;;;;5033459;28;20060;-72
2023/03/07 03:58:13;;;;;;;20.20;13.50;;;11.40;99.90;;;;;;5034290;28;20040;-73
2023/03/07 04:01:19;;;;;;;19.77;13.52;;;10.50;99.90;;;;;;5033941;28;20048;-73
2023/03/07 04:04:23;;;;;;;19.92;14.07;;;10.30;99.90;;;;;;5033137;28;20044;-74
2023/03/07 04:07:28;;;;;;;20.05;13.85;;;10.80;99.90;;;;;;5033955;28;20064;-74
2023/03/07 04:10:32;;;;;;;22.35;15.10;;;;;;;;;;5032868;28;20044;-74
2023/03/07 04:13:36;;;;;;;21.50;14.52;;;10.40;99.90;;;;;;5033846;28;20527;-74
2023/03/07 04:16:41;;;;;;;22.60;14.00;;;13.80;99.90;;;;;;5032928;28;20044;-73
2023/03/07 04:19:45;;;;;;;22.27;14.55;;;10.30;99.90;;;;;;5032717;28;20045;-74
2023/03/07 04:22:50;;;;;;;21.00;13.45;;;10.40;99.90;;;;;;5032526;28;20049;-73
2023/03/07 04:25:57;;;;;;;21.08;14.25;;;;;;;;;;5033718;28;20052;-74
2023/03/07 04:29:03;;;;;;;22.38;14.30;;;10.10;99.90;;;;;;5032825;28;20036;-74
2023/03/07 04:32:10;;;;;;;21.60;14.27;;;10.20;99.90;;;;;;5033550;28;20512;-74
2023/03/07 04:35:14;;;;;;;20.80;14.60;;;10.30;99.90;;;;;;5032745;28;20036;-73
2023/03/07 04:38:18;;;;;;;20.73;13.18;;;10.60;99.90;;;;;;5033387;28;20052;-73
2023/03/07 04:41:25;;;;;;;20.15;13.73;;;10.30;99.90;;;;;;5021506;28;20500;-73
2023/03/07 04:44:34;;;;;;;18.65;13.05;;;10.20;99.90;;;;;;5032648;28;20389;-73
2023/03/07 04:47:38;;;;;;;18.65;12.63;;;10.20;99.90;;;;;;5033125;28;20060;-74
2023/03/07 04:50:42;;;;;;;18.02;12.23;;;10.20;99.90;;;;;;5033168;28;20044;-74
2023/03/07 04:53:46;;;;;;;20.73;13.27;;;10.10;99.90;;;;;;5032990;28;20056;-74
2023/03/07 04:56:50;;;;;;;23.10;13.50;;;10.00;99.90;;;;;;5032070;28;20048;-74
2023/03/07 04:59:54;;;;;;;23.88;15.00;;;10.90;99.90;;;;;;5032522;28;20040;-73
2023/03/07 05:03:00;;;;;;;20.77;14.80;;;10.20;99.90;;;;;;5032309;28;20048;-74
2023/03/07 05:06:09;;;;;;;21.40;13.93;;;10.10;99.90;;;;;;5031876;28;20064;-73
2023/03/07 05:09:13;;;;;;;20.70;13.95;;;10.00;99.90;;;;;;5033056;28;20045;-72
2023/03/07 05:12:18;;;;;;;19.27;12.98;;;10.30;99.90;;;;;;5032126;28;20044;-72
2023/03/07 05:15:22;;;;;;;21.42;13.02;;;;;;;;;;5032103;28;20045;-73
2023/03/07 05:18:27;;;;;;;15.52;11.88;;;10.40;99.90;;;;;;5032207;28;20049;-73
2023/03/07 05:21:33;;;;;;;15.45;11.48;;;10.40;99.90;;;;;;5031536;28;20040;-73
2023/03/07 05:24:37;;;;;;;15.85;11.48;;;11.90;99.90;;;;;;5031929;28;20056;-73
2023/03/07 05:27:41;;;;;;;15.45;10.98;;;10.60;99.90;;;;;;5031457;28;20048;-72
2023/03/07 05:30:46;;;;;;;15.75;10.68;;;10.50;99.90;;;;;;5031861;28;20037;-72
2023/03/07 05:33:50;;;;;;;17.75;11.65;;;10.70;99.90;;;;;;5031394;28;20045;-73
2023/03/07 05:36:57;;;;;;;14.15;11.15;;;10.30;99.90;;;;;;5031686;28;20049;-73
2023/03/07 05:40:10;;;;;;;16.95;11.65;;;11.30;99.90;;;;;;5031223;28;20254;-73
2023/03/07 05:43:18;;;;;;;18.50;11.85;;;10.40;99.90;;;;;;5042807;28;20064;-74
2023/03/07 05:46:22;;;;;;;14.40;10.30;;;10.30;99.90;;;;;;5031169;28;20060;-74
2023/03/07 05:49:26;;;;;;;15.70;11.07;;;10.20;99.90;;;;;;5032108;28;20044;-73
2023/03/07 05:55:53;;;;;;;16.83;10.68;;;10.30;99.90;;;;;;5031443;28;20373;-73
2023/03/07 05:58:57;;;;;;;19.40;11.43;;;9.10;99.90;;;;;;5031209;28;20044;-74
2023/03/07 06:02:01;;;;;;;16.08;11.30;;;9.70;99.90;;;;;;5042634;28;20060;-74
2023/03/07 06:05:05;;;;;;;13.57;9.73;;;9.60;99.90;;;;;;5030892;28;20040;-74
2023/03/07 06:08:10;;;;;;;11.82;9.20;;;9.90;99.90;;;;;;5018758;28;20053;-74
2023/03/07 06:11:14;;;;;;;11.93;9.38;;;10.00;99.90;;;;;;5031124;28;20044;-74
2023/03/07 06:14:18;;;;;;;14.00;8.68;;;10.10;99.90;;;;;;5030694;28;20044;-74
2023/03/07 06:17:22;;;;;;;13.23;8.93;;;10.40;99.90;;;;;;5030747;28;20045;-73
2023/03/07 06:20:26;;;;;;;13.70;9.23;;;9.90;99.90;;;;;;5031519;28;20040;-75
2023/03/07 06:23:34;;;;;;;14.15;8.77;;;11.30;99.90;;;;;;5030503;28;20044;-73
2023/03/07 06:26:39;;;;;;;12.43;9.38;;;12.90;99.90;;;;;;5030408;28;20056;-72
2023/03/07 06:29:43;;;;;;;12.43;8.70;;;12.40;99.90;;;;;;5031410;28;20385;-72
2023/03/07 06:32:47;;;;;;;11.82;8.25;;;13.30;99.90;;;;;;5030424;28;20057;-73
2023/03/07 06:35:52;;;;;;;11.68;7.68;;;;;;;;;;5030204;28;20044;-72
2023/03/07 06:38:56;;;;;;;6.93;5.78;;;;;;;;;;5030322;28;20049;-70
2023/03/07 06:42:01;;;;;;;12.30;7.13;;;;;;;;;;5030371;28;20034;-72
2023/03/07 06:45:06;;;;;;;10.10;6.68;;;14.10;97.70;;;;;;5030977;28;20042;-72
2023/03/07 06:48:11;;;;;;;8.93;6.60;;;;;;;;;;5030149;28;20052;-72
2023/03/07 06:51:16;;;;;;;10.27;7.65;;;;;;;;;;5030352;28;20034;-71
2023/03/07 06:54:23;;;;;;;9.57;7.63;;;12.90;99.80;;;;;;5030219;28;20042;-72
2023/03/07 06:57:28;;;;;;;12.77;7.95;;;12.40;99.90;;;;;;5029983;28;20048;-70
2023/03/07 07:00:34;;;;;;;13.85;8.43;;;12.20;99.90;;;;;;5031124;28;20048;-71
2023/03/07 07:03:37;;;;;;;12.82;8.07;;;12.10;99.90;;;;;;5030180;28;20052;-72
2023/03/07 07:06:42;;;;;;;12.27;8.15;;;;;;;;;;5030891;28;20056;-71
2023/03/07 07:09:46;;;;;;;11.18;7.20;;;;;;;;;;5030923;28;20037;-71
2023/03/07 07:12:55;;;;;;;10.57;7.57;;;12.20;99.90;;;;;;5030397;28;20410;-72
2023/03/07 07:16:07;;;;;;;14.23;8.27;;;12.20;99.90;;;;;;5030439;28;20504;-71
2023/03/07 07:19:13;;;;;;;12.07;7.90;;;12.00;99.90;;;;;;5030152;28;20052;-71
2023/03/07 07:22:18;;;;;;;12.07;8.43;;;11.80;99.90;;;;;;5028369;28;20040;-73
2023/03/07 07:25:23;;;;;;;13.07;8.00;;;12.00;99.90;;;;;;5029536;28;20048;-71
2023/03/07 07:28:27;;;;;;;10.02;7.53;;;12.00;99.90;;;;;;5030400;28;20053;-69
2023/03/07 07:31:31;;;;;;;16.80;8.38;;;12.10;99.90;;;;;;5029522;28;20049;-72
2023/03/07 07:34:36;;;;;;;15.43;9.95;;;12.00;99.90;;;;;;5029501;28;20056;-72
2023/03/07 07:37:41;;;;;;;12.23;9.55;;;;;;;;;;5018480;28;20052;-69
2023/03/07 07:40:45;;;;;;;14.02;10.15;;;11.90;99.90;;;;;;5030362;28;20049;-71
2023/03/07 07:43:52;;;;;;;14.90;10.80;;;12.00;99.90;;;;;;5029328;28;20382;-70
2023/03/07 07:47:02;;;;;;;13.50;10.23;;;12.00;99.90;;;;;;5029423;28;20049;-71
2023/03/07 07:50:08;;;;;;;17.27;10.75;;;12.20;99.90;;;;;;5029718;28;20500;-73
2023/03/07 07:53:15;;;;;;;19.50;10.88;;;12.10;99.90;;;;;;5029409;28;20053;-74
2023/03/07 07:56:20;;;;;;;18.30;10.43;;;12.00;99.90;;;;;;5029713;28;20048;-68
2023/03/07 07:59:24;;;;;;;18.98;11.52;;;11.70;99.90;;;;;;5029978;28;20052;-68
2023/03/07 08:02:29;;;;;;;18.27;11.40;;;12.40;99.90;;;;;;5029100;28;20049;-73
2023/03/07 08:05:34;;;;;;;15.43;10.70;;;;;;;;;;5030129;28;20048;-77
2023/03/07 08:08:38;;;;;;;13.07;9.48;;;12.90;99.90;;;;;;5030324;28;20060;-73
2023/03/07 08:11:43;;;;;;;8.70;5.40;;;15.00;99.90;;;;;;5029089;28;20037;-71
2023/03/07 08:14:47;;;;;;;9.05;6.47;;;;;;;;;;5030157;28;20040;-72
2023/03/07 08:17:51;;;;;;;8.25;5.90;;;13.20;99.90;;;;;;5029745;28;20033;-72
2023/03/07 08:20:58;;;;;;;13.82;6.30;;;13.80;99.90;;;;;;5029850;28;20045;-73
2023/03/07 08:24:03;;;;;;;12.13;7.00;;;;;;;;;;5029829;28;20045;-73
2023/03/07 08:27:07;;;;;;;14.88;6.90;;;14.30;99.90;;;;;;5029913;28;20056;-73
2023/03/07 08:30:12;;;;;;;9.95;7.10;;;14.10;99.90;;;;;;5029904;28;20385;-78
2023/03/07 08:33:16;;;;;;;12.38;7.40;;;14.20;99.90;;;;;;5033080;28;20068;-77
2023/03/07 08:36:20;;;;;;;14.25;7.38;;;14.70;99.90;;;;;;5033281;28;20040;-76
2023/03/07 08:39:24;;;;;;;23.15;10.00;;;15.20;99.90;;;;;;5032974;28;20056;-76
2023/03/07 08:42:28;;;;;;;23.50;10.02;;;15.10;98.70;;;;;;5033351;28;20052;-76
2023/03/07 08:45:32;;;;;;;15.77;8.73;;;19.30;99.90;;;;;;5033069;28;20472;-76
2023/03/07 08:48:37;;;;;;;16.15;8.77;;;14.90;99.20;;;;;;5033407;28;20045;-76
2023/03/07 08:55:03;;;;;;;16.63;9.73;;;14.70;99.50;;;;;;5033174;28;20090;-76
2023/03/07 08:58:08;;;;;;;12.88;9.43;;;14.60;99.70;;;;;;5033257;28;20053;-74
2023/03/07 09:01:12;;;;;;;17.48;9.25;;;14.50;99.50;;;;;;5033259;28;20044;-76
2023/03/07 09:04:16;;;;;;;11.65;9.40;;;14.60;99.90;;;;;;5032168;28;20049;-77
2023/03/07 09:07:21;;;;;;;15.23;9.30;;;15.30;99.90;;;;;;5032768;28;20437;-74
2023/03/07 09:10:26;;;;;;;12.27;8.20;;;14.60;99.90;;;;;;5033093;28;20048;-76
2023/03/07 09:13:30;;;;;;;12.45;8.70;;;14.70;99.90;;;;;;5033217;28;20049;-76
2023/03/07 09:16:34;;;;;;;13.15;8.63;;;14.60;99.80;;;;;;5032716;28;20504;-76
2023/03/07 09:19:38;;;;;;;14.25;9.48;;;14.50;99.90;;;;;;5032982;28;20044;-75
2023/03/07 09:22:42;;;;;;;13.10;8.95;;;14.50;99.90;;;;;;5032602;28;20044;-76
2023/03/07 09:25:47;;;;;;;13.07;8.65;;;17.10;99.90;;;;;;5032513;28;20040;-76
2023/03/07 09:28:50;;;;;;;13.18;8.95;;;15.00;99.90;;;;;;5032428;28;20053;-75
2023/03/07 09:31:54;;;;;;;14.07;9.07;;;12.80;99.30;;;;;;5032397;28;20040;-74
2023/03/07 09:34:58;;;;;;;11.65;8.30;;;14.50;99.70;;;;;;5032414;28;20056;-74
2023/03/07 09:38:03;;;;;;;12.20;8.02;;;14.50;99.90;;;;;;5031311;28;20045;-74
2023/03/07 09:41:38;;;;;;;9.45;7.25;;;14.50;99.90;;;;;;5032374;28;20394;-74
2023/03/07 09:45:02;;;;;;;11.48;7.75;;;15.90;99.90;;;;;;5032440;28;20493;-73
2023/03/07 09:48:58;;;;;;;11.98;7.30;;;14.60;99.70;;;;;;5031262;28;20052;-76
2023/03/07 09:52:08;;;;;;;12.60;7.32;;;13.90;99.10;;;;;;5031992;28;20036;-76
2023/03/07 09:55:19;;;;;;;14.18;6.28;;;14.60;99.30;;;;;;5031839;28;20056;-75
2023/03/07 09:58:26;;;;;;;16.33;5.97;;;14.60;99.20;;;;;;5032250;28;20041;-74
2023/03/07 10:01:34;;;;;;;29.20;5.68;;;14.70;99.00;;;;;;5032008;28;20068;-75
2023/03/07 10:04:58;;;;;;;17.13;4.20;;;14.70;99.20;;;;;;5031805;28;20056;-73
2023/03/07 10:08:04;;;;;;;6.50;3.10;;;14.70;98.60;;;;;;5031760;28;20056;-74
2023/03/07 10:11:17;;;;;;;8.45;3.15;;;14.70;98.40;;;;;;5031764;28;20504;-73
2023/03/07 10:14:39;;;;;;;15.95;5.22;;;14.70;98.20;;;;;;5031648;28;20113;-72
2023/03/07 10:18:29;;;;;;;10.25;4.60;;;14.80;98.20;;;;;;5030574;28;20052;-72
2023/03/07 10:21:57;;;;;;;12.50;3.97;;;16.10;98.60;;;;;;5028787;28;20045;-70
2023/03/07 10:25:10;;;;;;;11.70;4.45;;;15.00;98.40;;;;;;5029410;28;20048;-73
2023/03/07 10:28:24;;;;;;;13.63;4.60;;;15.00;98.30;;;;;;5031173;28;20052;-73
2023/03/07 10:31:36;;;;;;;14.50;4.53;;;15.00;98.30;;;;;;5031472;28;20052;-72
2023/03/07 10:34:40;;;;;;;11.73;3.67;;;15.10;98.40;;;;;;5030614;28;20393;-72
2023/03/07 10:37:49;;;;;;;8.15;3.97;;;15.30;98.20;;;;;;5030871;28;20041;-71
2023/03/07 10:41:03;;;;;;;22.48;4.47;;;15.40;97.90;;;;;;5031387;28;20068;-72
2023/03/07 10:44:16;;;;;;;32.53;5.05;;;15.80;97.70;;;;;;5030248;28;20048;-71
2023/03/07 10:47:26;;;;;;;18.13;5.82;;;16.30;97.20;;;;;;5030871;28;20044;-72
2023/03/07 10:50:44;;;;;;;13.68;4.38;;;16.70;96.30;;;;;;5030868;28;20045;-73
2023/03/07 10:53:49;;;;;;;14.10;4.38;;;16.90;95.40;;;;;;5030940;28;20048;-72
2023/03/07 10:57:07;;;;;;;10.50;3.90;;;17.00;94.80;;;;;;5030826;28;20052;-74
2023/03/07 11:00:16;;;;;;;12.50;3.60;;;17.20;94.70;;;;;;5030624;28;20048;-74
2023/03/07 11:03:43;;;;;;;11.25;4.03;;;17.30;94.20;;;;;;5030584;28;20052;-73
2023/03/07 11:06:54;;;;;;;12.35;3.83;;;17.50;94.70;;;;;;5030614;28;20504;-73
2023/03/07 11:09:59;;;;;;;;;;;17.60;94.10;;;;;;5031470;28;20060;-76
2023/03/07 11:13:15;;;;;;;9.90;4.07;;;17.60;93.60;;;;;;5030851;28;19909;-77
2023/03/07 11:16:22;;;;;;;10.90;3.30;;;17.50;93.00;;;;;;5030888;28;20049;-73
2023/03/07 11:19:31;;;;;;;9.18;3.05;;;17.30;92.90;;;;;;5030912;28;20044;-73
2023/03/07 11:22:35;;;;;;;10.02;3.33;;;17.00;92.70;;;;;;5029678;28;20521;-72
2023/03/07 11:25:39;;;;;;;8.63;2.90;;;16.80;92.70;;;;;;5030819;28;20044;-73
2023/03/07 11:28:43;;;;;;;8.15;2.67;;;16.70;93.10;;;;;;5030396;28;20529;-74
2023/03/07 11:31:50;;;;;;;19.65;4.00;;;16.70;93.40;;;;;;5030145;28;20390;-75
2023/03/07 11:35:14;;;;;;;17.35;3.40;;;16.70;93.40;;;;;;5030515;28;20053;-75
2023/03/07 11:38:46;;;;;;;6.68;2.22;;;16.50;93.20;;;;;;5030509;28;20068;-73
2023/03/07 11:41:54;;;;;;;;;;;16.50;92.70;;;;;;5031069;28;20044;-73
2023/03/07 11:45:34;;;;;;;11.07;2.97;;;16.70;93.20;;;;;;5030805;28;19913;-76
2023/03/07 11:49:09;;;;;;;19.58;3.63;;;16.60;92.40;;;;;;5030608;28;20056;-77
2023/03/07 11:52:31;;;;;;;9.98;3.33;;;16.70;92.60;;;;;;5030414;28;20052;-75
2023/03/07 11:55:51;;;;;;;10.45;2.80;;;16.70;93.00;;;;;;5030324;28;20127;-74
2023/03/07 11:59:25;;;;;;;14.20;4.30;;;16.80;93.00;;;;;;5031201;28;20120;-76
2023/03/07 12:02:52;;;;;;;15.05;4.15;;;16.70;92.70;;;;;;5030287;28;20393;-77
2023/03/07 12:05:59;;;;;;;12.73;3.38;;;16.60;92.20;;;;;;5030221;28;20048;-77
2023/03/07 12:09:19;;;;;;;15.77;3.40;;;16.50;92.60;;;;;;5034196;28;20048;-77
2023/03/07 12:13:19;;;;;;;6.07;2.85;;;16.40;93.20;;;;;;5033853;28;20053;-77
2023/03/07 12:16:32;;;;;;;11.85;3.75;;;16.30;93.40;;;;;;5024854;28;20650;-77
2023/03/07 12:19:54;;;;;;;5.32;2.92;;;16.20;93.50;;;;;;5033738;28;20045;-77
2023/03/07 12:23:01;;;;;;;20.17;4.00;;;16.20;93.60;;;;;;5034054;28;20045;-77
2023/03/07 12:26:24;;;;;;;12.85;3.33;;;16.10;93.70;;;;;;5033520;28;20041;-76
2023/03/07 12:29:36;;;;;;;12.63;3.33;;;16.00;92.80;;;;;;5033565;28;20072;-74
2023/03/07 12:32:40;;;;;;;16.63;4.35;;;16.00;92.50;;;;;;5033579;28;20048;-74
2023/03/07 12:35:51;;;;;;;13.07;3.78;;;16.00;92.20;;;;;;5033695;28;20037;-74
2023/03/07 12:39:12;;;;;;;11.98;3.78;;;16.00;91.80;;;;;;5033327;28;20052;-75
2023/03/07 12:42:16;;;;;;;;;;;16.00;91.00;;;;;;5032937;28;20053;-74
2023/03/07 12:45:25;;;;;;;12.90;3.72;;;16.10;91.00;;;;;;5033332;28;20484;-76
2023/03/07 12:48:38;;;;;;;8.30;3.28;;;16.20;90.20;;;;;;5033341;28;20408;-74
2023/03/07 12:51:48;;;;;;;12.50;2.97;;;16.20;90.30;;;;;;5033332;28;20048;-74
2023/03/07 12:55:14;;;;;;;13.90;4.15;;;16.30;91.90;;;;;;5033347;28;20040;-73
2023/03/07 12:58:51;;;;;;;9.93;3.53;;;16.30;92.40;;;;;;5033460;28;20049;-76
2023/03/07 13:02:09;;;;;;;13.30;3.78;;;16.50;92.90;;;;;;5033186;28;20056;-78
2023/03/07 13:05:19;;;;;;;18.50;3.92;;;16.50;92.00;;;;;;5032232;28;20044;-76
2023/03/07 13:08:24;;;;;;;11.73;4.00;;;16.60;92.20;;;;;;5032957;28;20543;-73
2023/03/07 13:11:32;;;;;;;10.30;3.70;;;16.70;92.30;;;;;;5032235;28;20056;-74
2023/03/07 13:14:41;;;;;;;8.70;3.50;;;16.70;92.10;;;;;;5033069;28;20048;-75
2023/03/07 13:17:46;;;;;;;10.45;3.28;;;16.80;92.00;;;;;;5032377;28;20037;-75
2023/03/07 13:21:08;;;;;;;7.03;3.13;;;16.70;92.00;;;;;;5032586;28;20048;-74
2023/03/07 13:24:43;;;;;;;8.88;3.28;;;16.70;92.10;;;;;;5033017;28;20037;-73
2023/03/07 13:27:51;;;;;;;15.27;3.63;;;16.70;92.30;;;;;;5033023;28;20048;-71
2023/03/07 13:31:14;;;;;;;15.93;4.63;;;16.70;92.20;;;;;;5032810;28;20045;-74
2023/03/07 13:34:45;;;;;;;13.73;3.72;;;16.60;92.10;;;;;;5032802;28;20048;-76
2023/03/07 13:37:58;;;;;;;9.40;3.55;;;16.60;92.30;;;;;;5032520;28;20076;-76
2023/03/07 13:41:04;;;;;;;6.13;3.03;;;16.50;91.80;;;;;;5032828;28;20057;-74
2023/03/07 13:44:27;;;;;;;12.50;3.42;;;16.50;92.20;;;;;;5031952;28;20052;-76
2023/03/07 13:47:42;;;;;;;8.85;3.63;;;16.40;91.90;;;;;;5032288;28;20044;-74
2023/03/07 13:50:54;;;;;;;18.50;5.68;;;16.40;91.50;;;;;;5032477;28;20052;-75
2023/03/07 13:54:02;;;;;;;8.82;5.10;;;16.50;92.00;;;;;;5032502;28;20045;-71
2023/03/07 13:57:15;;;;;;;8.80;4.13;;;16.50;92.10;;;;;;5031900;28;20048;-73
2023/03/07 14:00:26;;;;;;;15.80;6.13;;;16.50;92.10;;;;;;5032000;28;20048;-72
2023/03/07 14:03:39;;;;;;;16.85;6.30;;;16.50;92.30;;;;;;5032046;28;20049;-76
2023/03/07 14:06:47;;;;;;;11.27;3.92;;;16.40;91.50;;;;;;5032099;28;20048;-75
2023/03/07 14:09:56;;;;;;;14.73;4.13;;;16.40;91.70;;;;;;5031865;28;20124;-74
2023/03/07 14:13:26;;;;;;;7.38;3.78;;;16.30;91.20;;;;;;5032009;28;20112;-76
2023/03/07 14:16:54;;;;;;;7.82;4.40;;;16.20;91.00;;;;;;5032214;28;20417;-76
2023/03/07 14:20:18;;;;;;;10.73;4.72;;;16.10;90.90;;;;;;5031780;28;20413;-73
2023/03/07 14:23:36;;;;;;;13.60;5.00;;;16.10;91.60;;;;;;5031439;28;20052;-74
2023/03/07 14:26:48;;;;;;;12.40;4.72;;;16.00;91.90;;;;;;5031586;28;20040;-73
2023/03/07 14:29:55;;;;;;;11.57;4.88;;;16.10;92.50;;;;;;5031154;28;20048;-79
2023/03/07 14:33:00;;;;;;;12.20;4.35;;;16.10;92.50;;;;;;5031397;28;20068;-76
2023/03/07 14:36:34;;;;;;;16.75;5.82;;;16.00;92.60;;;;;;5031444;28;20048;-76
2023/03/07 14:39:57;;;;;;;15.00;5.50;;;16.00;93.00;;;;;;5031113;28;20410;-79
2023/03/07 14:43:26;;;;;;;14.18;4.60;;;16.00;92.40;;;;;;5031224;28;20041;-78
2023/03/07 14:46:38;;;;;;;19.85;6.38;;;15.90;92.20;;;;;;5031280;28;20056;-76
2023/03/07 14:49:48;;;;;;;12.40;5.10;;;15.90;92.40;;;;;;5030908;28;20057;-74
2023/03/07 14:53:03;;;;;;;14.13;5.13;;;15.90;92.20;;;;;;5030768;28;20037;-75
2023/03/07 14:56:08;;;;;;;13.32;5.05;;;15.90;92.30;;;;;;5030889;28;20068;-76
2023/03/07 14:59:12;;;;;;;17.58;6.30;;;15.90;92.30;;;;;;5030723;28;20048;-75
2023/03/07 15:02:17;;;;;;;18.83;6.20;;;15.90;92.80;;;;;;5030798;28;20060;-74
2023/03/07 15:05:30;;;;;;;14.55;5.47;;;15.90;92.80;;;;;;5030745;28;20041;-74
2023/03/07 15:08:37;;;;;;;21.60;6.38;;;15.90;93.00;;;;;;5029952;28;20420;-75
2023/03/07 15:11:46;;;;;;;24.25;6.78;;;16.00;92.40;;;;;;5030980;28;20052;-74
2023/03/07 15:14:57;;;;;;;17.50;6.40;;;15.90;91.70;;;;;;5030574;28;20053;-76
2023/03/07 15:18:30;;;;;;;17.10;6.32;;;15.90;91.20;;;;;;5030705;28;20048;-78
2023/03/07 15:21:40;;;;;;;17.85;5.88;;;15.90;91.60;;;;;;5030888;28;20048;-77
2023/03/07 15:24:47;;;;;;;18.60;6.13;;;15.90;91.80;;;;;;5030819;28;20048;-74
2023/03/07 15:27:59;;;;;;;19.98;6.70;;;15.90;91.40;;;;;;5030534;28;20520;-79
2023/03/07 15:31:04;;;;;;;16.38;4.82;;;15.90;91.80;;;;;;5030207;28;20120;-78
2023/03/07 15:34:10;;;;;;;22.48;6.00;;;15.90;91.60;;;;;;5030600;28;20052;-79
2023/03/07 15:37:26;;;;;;;15.05;5.68;;;15.90;91.30;;;;;;5029773;28;20056;-76
2023/03/07 15:40:35;;;;;;;21.35;5.82;;;15.90;91.90;;;;;;5030257;28;20532;-78
2023/03/07 15:43:39;;;;;;;16.17;5.82;;;15.90;91.10;;;;;;5034598;28;20496;-78
2023/03/07 15:46:50;;;;;;;13.70;5.07;;;16.00;91.40;;;;;;5034747;28;20501;-77
2023/03/07 15:49:59;;;;;;;16.73;6.93;;;15.90;91.80;;;;;;5056634;28;20044;-78
2023/03/07 15:53:18;;;;;;;17.85;6.47;;;15.90;92.00;;;;;;5034470;28;20123;-77
2023/03/07 15:56:29;;;;;;;16.10;6.93;;;15.80;91.80;;;;;;5034604;28;20045;-78
2023/03/07 15:59:46;;;;;;;29.45;8.63;;;15.80;91.90;;;;;;5033239;28;20053;-75
2023/03/07 16:02:51;;;;;;;18.05;6.03;;;15.70;91.60;;;;;;5033460;28;20044;-77
2023/03/07 16:05:57;;;;;;;25.73;7.88;;;15.70;92.00;;;;;;5034459;28;20499;-79
2023/03/07 16:09:01;;;;;;;21.17;6.50;;;15.70;92.30;;;;;;5034286;28;20060;-78
2023/03/07 16:12:11;;;;;;;13.75;5.60;;;15.60;92.00;;;;;;5033910;28;20040;-74
2023/03/07 16:15:17;;;;;;;15.70;6.38;;;15.50;91.80;;;;;;5034250;28;20446;-75
2023/03/07 16:18:27;;;;;;;19.08;6.97;;;15.40;92.10;;;;;;5033632;28;20040;-75
2023/03/07 16:21:31;;;;;;;17.70;6.90;;;15.40;92.30;;;;;;5033738;28;20040;-76
2023/03/07 16:24:35;;;;;;;22.48;7.68;;;15.30;92.30;;;;;;5033845;28;20048;-75
2023/03/07 16:27:39;;;;;;;19.27;6.70;;;15.20;92.40;;;;;;5033691;28;20052;-74